DAUL/LOO METAR and TAF weather

Enter ICAO airport designator
Station Type Date Time Source
DAUL METAR 2022/01/29 12:00 UTC NOAA

DAUL 291200Z 00000KT CAVOK 14/M04 Q1031


Station Type Date Time Source
DAUL Decoded METAR 2022/01/29 12:00 UTC NOAA

Laghouat, Algeria (DAUL) 33-46N 002-56E 765M
Jan 29, 2022 - 07:00 AM EST / 2022.01.29 1200 UTC
Wind: Calm:0
Visibility: greater than 7 mile(s):0
Temperature: 57 F (14 C)
Dew Point: 24 F (-4 C)
Relative Humidity: 28%
Pressure (altimeter): 30.45 in. Hg (1031 hPa)
ob: DAUL 291200Z 00000KT CAVOK 14/M04 Q1031
cycle: 12

Station Type Date Time Source
DAUL TAF 2017/11/09 18:03 UTC NOAA

TAF DAUL 091700Z 0918/1009 02012KT 9999 SCT030 SCT100 PROB40
TEMPO 0918/0924 35020G30KT 4000 -TSRA FEW030CB

Example: see airport list